sensor_id;sensor_type;location;lat;lon;timestamp;P1;durP1;ratioP1;P2;durP2;ratioP2
33987;SDS011;37428;53.580;-1.666;2023-07-29T00:03:07;2.63;;;1.48;;
33987;SDS011;37428;53.580;-1.666;2023-07-29T00:06:17;3.50;;;1.73;;
33987;SDS011;37428;53.580;-1.666;2023-07-29T00:09:33;2.72;;;1.27;;
33987;SDS011;37428;53.580;-1.666;2023-07-29T00:12:35;3.33;;;1.40;;
33987;SDS011;37428;53.580;-1.666;2023-07-29T00:15:47;2.35;;;1.30;;
33987;SDS011;37428;53.580;-1.666;2023-07-29T00:18:49;2.47;;;1.15;;
33987;SDS011;37428;53.580;-1.666;2023-07-29T00:21:51;3.00;;;1.45;;
33987;SDS011;37428;53.580;-1.666;2023-07-29T00:24:53;2.05;;;1.50;;
33987;SDS011;37428;53.580;-1.666;2023-07-29T00:28:11;2.95;;;1.17;;
33987;SDS011;37428;53.580;-1.666;2023-07-29T00:31:15;2.60;;;1.30;;
33987;SDS011;37428;53.580;-1.666;2023-07-29T00:34:17;3.63;;;1.55;;
33987;SDS011;37428;53.580;-1.666;2023-07-29T00:37:35;4.60;;;1.33;;
33987;SDS011;37428;53.580;-1.666;2023-07-29T00:41:04;2.70;;;1.38;;
33987;SDS011;37428;53.580;-1.666;2023-07-29T00:44:06;2.10;;;1.33;;
33987;SDS011;37428;53.580;-1.666;2023-07-29T00:47:12;5.00;;;1.50;;
33987;SDS011;37428;53.580;-1.666;2023-07-29T00:50:16;2.58;;;1.27;;
33987;SDS011;37428;53.580;-1.666;2023-07-29T00:53:19;1.70;;;1.20;;
33987;SDS011;37428;53.580;-1.666;2023-07-29T00:56:21;1.38;;;1.27;;
33987;SDS011;37428;53.580;-1.666;2023-07-29T01:02:35;1.08;;;0.93;;
33987;SDS011;37428;53.580;-1.666;2023-07-29T01:05:40;1.67;;;1.23;;
33987;SDS011;37428;53.580;-1.666;2023-07-29T01:08:53;2.78;;;1.33;;
33987;SDS011;37428;53.580;-1.666;2023-07-29T01:12:11;1.85;;;1.30;;
33987;SDS011;37428;53.580;-1.666;2023-07-29T01:15:21;3.72;;;1.65;;
33987;SDS011;37428;53.580;-1.666;2023-07-29T01:18:29;2.10;;;1.30;;
33987;SDS011;37428;53.580;-1.666;2023-07-29T01:21:33;2.63;;;1.50;;
33987;SDS011;37428;53.580;-1.666;2023-07-29T01:24:40;2.53;;;1.10;;
33987;SDS011;37428;53.580;-1.666;2023-07-29T01:27:43;2.15;;;1.30;;
33987;SDS011;37428;53.580;-1.666;2023-07-29T01:30:55;2.85;;;1.33;;
33987;SDS011;37428;53.580;-1.666;2023-07-29T01:34:05;3.60;;;1.13;;
33987;SDS011;37428;53.580;-1.666;2023-07-29T01:37:12;1.98;;;1.30;;
33987;SDS011;37428;53.580;-1.666;2023-07-29T01:40:24;6.20;;;1.42;;
33987;SDS011;37428;53.580;-1.666;2023-07-29T01:43:36;3.25;;;1.10;;
33987;SDS011;37428;53.580;-1.666;2023-07-29T01:47:03;1.98;;;1.23;;
33987;SDS011;37428;53.580;-1.666;2023-07-29T01:50:26;2.70;;;1.10;;
33987;SDS011;37428;53.580;-1.666;2023-07-29T01:53:38;2.97;;;1.30;;
33987;SDS011;37428;53.580;-1.666;2023-07-29T01:56:42;4.00;;;1.15;;
33987;SDS011;37428;53.580;-1.666;2023-07-29T02:00:00;2.85;;;1.15;;
33987;SDS011;37428;53.580;-1.666;2023-07-29T02:04:45;3.65;;;1.38;;
33987;SDS011;37428;53.580;-1.666;2023-07-29T02:06:40;4.05;;;1.40;;
33987;SDS011;37428;53.580;-1.666;2023-07-29T02:09:44;8.63;;;1.52;;
33987;SDS011;37428;53.580;-1.666;2023-07-29T02:16:07;3.22;;;1.35;;
33987;SDS011;37428;53.580;-1.666;2023-07-29T02:19:15;6.03;;;1.40;;
33987;SDS011;37428;53.580;-1.666;2023-07-29T02:22:20;4.45;;;1.40;;
33987;SDS011;37428;53.580;-1.666;2023-07-29T02:25:43;3.33;;;1.65;;
33987;SDS011;37428;53.580;-1.666;2023-07-29T02:28:47;2.65;;;1.90;;
33987;SDS011;37428;53.580;-1.666;2023-07-29T02:32:01;5.50;;;2.08;;
33987;SDS011;37428;53.580;-1.666;2023-07-29T02:35:41;1.70;;;1.60;;
33987;SDS011;37428;53.580;-1.666;2023-07-29T02:38:45;1.55;;;1.42;;
33987;SDS011;37428;53.580;-1.666;2023-07-29T02:41:49;2.60;;;1.50;;
33987;SDS011;37428;53.580;-1.666;2023-07-29T02:44:55;2.17;;;1.45;;
33987;SDS011;37428;53.580;-1.666;2023-07-29T02:48:00;3.75;;;1.50;;
33987;SDS011;37428;53.580;-1.666;2023-07-29T02:51:16;2.17;;;1.38;;
33987;SDS011;37428;53.580;-1.666;2023-07-29T02:54:32;5.20;;;1.92;;
33987;SDS011;37428;53.580;-1.666;2023-07-29T02:57:35;5.88;;;1.80;;
33987;SDS011;37428;53.580;-1.666;2023-07-29T03:00:38;3.92;;;1.50;;
33987;SDS011;37428;53.580;-1.666;2023-07-29T03:03:41;2.85;;;1.30;;
33987;SDS011;37428;53.580;-1.666;2023-07-29T03:06:44;1.95;;;1.52;;
33987;SDS011;37428;53.580;-1.666;2023-07-29T03:13:52;3.33;;;1.73;;
33987;SDS011;37428;53.580;-1.666;2023-07-29T03:17:15;5.30;;;1.60;;
33987;SDS011;37428;53.580;-1.666;2023-07-29T03:20:23;2.20;;;1.08;;
33987;SDS011;37428;53.580;-1.666;2023-07-29T03:23:25;3.88;;;1.67;;
33987;SDS011;37428;53.580;-1.666;2023-07-29T03:26:45;4.88;;;1.48;;
33987;SDS011;37428;53.580;-1.666;2023-07-29T03:29:50;4.15;;;1.65;;
33987;SDS011;37428;53.580;-1.666;2023-07-29T03:36:07;5.70;;;1.50;;
33987;SDS011;37428;53.580;-1.666;2023-07-29T03:39:25;4.82;;;1.15;;
33987;SDS011;37428;53.580;-1.666;2023-07-29T03:42:41;4.00;;;1.35;;
33987;SDS011;37428;53.580;-1.666;2023-07-29T03:45:51;7.78;;;1.63;;
33987;SDS011;37428;53.580;-1.666;2023-07-29T03:49:08;7.15;;;1.67;;
33987;SDS011;37428;53.580;-1.666;2023-07-29T03:52:24;4.90;;;1.50;;
33987;SDS011;37428;53.580;-1.666;2023-07-29T03:55:28;4.55;;;1.65;;
33987;SDS011;37428;53.580;-1.666;2023-07-29T03:58:36;3.47;;;1.80;;
33987;SDS011;37428;53.580;-1.666;2023-07-29T04:02:07;8.07;;;1.88;;
33987;SDS011;37428;53.580;-1.666;2023-07-29T04:05:21;5.60;;;1.73;;
33987;SDS011;37428;53.580;-1.666;2023-07-29T04:08:34;8.65;;;1.63;;
33987;SDS011;37428;53.580;-1.666;2023-07-29T04:11:58;7.60;;;2.00;;
33987;SDS011;37428;53.580;-1.666;2023-07-29T04:15:01;4.03;;;1.67;;
33987;SDS011;37428;53.580;-1.666;2023-07-29T04:18:03;6.47;;;1.60;;
33987;SDS011;37428;53.580;-1.666;2023-07-29T04:21:11;14.48;;;2.90;;
33987;SDS011;37428;53.580;-1.666;2023-07-29T04:24:13;6.93;;;1.88;;
33987;SDS011;37428;53.580;-1.666;2023-07-29T04:27:27;8.65;;;1.83;;
33987;SDS011;37428;53.580;-1.666;2023-07-29T04:30:29;4.50;;;1.60;;
33987;SDS011;37428;53.580;-1.666;2023-07-29T04:33:32;9.25;;;1.80;;
33987;SDS011;37428;53.580;-1.666;2023-07-29T04:36:42;7.70;;;1.85;;
33987;SDS011;37428;53.580;-1.666;2023-07-29T04:40:05;7.45;;;1.85;;
33987;SDS011;37428;53.580;-1.666;2023-07-29T04:43:08;4.72;;;1.73;;
33987;SDS011;37428;53.580;-1.666;2023-07-29T04:46:12;7.28;;;1.85;;
33987;SDS011;37428;53.580;-1.666;2023-07-29T04:49:15;6.03;;;2.00;;
33987;SDS011;37428;53.580;-1.666;2023-07-29T04:52:30;7.25;;;2.20;;
33987;SDS011;37428;53.580;-1.666;2023-07-29T04:55:45;5.93;;;2.40;;
33987;SDS011;37428;53.580;-1.666;2023-07-29T05:02:51;9.52;;;2.83;;
33987;SDS011;37428;53.580;-1.666;2023-07-29T05:05:55;10.00;;;2.22;;
33987;SDS011;37428;53.580;-1.666;2023-07-29T05:12:20;7.82;;;2.22;;
33987;SDS011;37428;53.580;-1.666;2023-07-29T05:15:46;12.30;;;2.92;;
33987;SDS011;37428;53.580;-1.666;2023-07-29T05:18:49;6.43;;;2.22;;
33987;SDS011;37428;53.580;-1.666;2023-07-29T05:21:51;8.18;;;2.17;;
33987;SDS011;37428;53.580;-1.666;2023-07-29T05:24:56;6.30;;;2.45;;
33987;SDS011;37428;53.580;-1.666;2023-07-29T05:27:59;9.57;;;2.08;;
33987;SDS011;37428;53.580;-1.666;2023-07-29T05:31:02;8.82;;;2.22;;
33987;SDS011;37428;53.580;-1.666;2023-07-29T05:34:41;9.77;;;2.53;;
33987;SDS011;37428;53.580;-1.666;2023-07-29T05:37:43;8.50;;;2.28;;
33987;SDS011;37428;53.580;-1.666;2023-07-29T05:40:50;8.10;;;2.65;;
33987;SDS011;37428;53.580;-1.666;2023-07-29T05:44:01;7.85;;;2.47;;
33987;SDS011;37428;53.580;-1.666;2023-07-29T05:47:24;7.03;;;2.20;;
33987;SDS011;37428;53.580;-1.666;2023-07-29T05:50:29;7.43;;;2.97;;
33987;SDS011;37428;53.580;-1.666;2023-07-29T05:54:14;8.75;;;2.42;;
33987;SDS011;37428;53.580;-1.666;2023-07-29T05:57:02;8.35;;;2.30;;
33987;SDS011;37428;53.580;-1.666;2023-07-29T06:00:49;7.80;;;2.30;;
33987;SDS011;37428;53.580;-1.666;2023-07-29T06:03:42;8.48;;;2.63;;
33987;SDS011;37428;53.580;-1.666;2023-07-29T06:07:10;8.25;;;2.35;;
33987;SDS011;37428;53.580;-1.666;2023-07-29T06:10:32;10.05;;;2.92;;
33987;SDS011;37428;53.580;-1.666;2023-07-29T06:13:39;11.23;;;3.70;;
33987;SDS011;37428;53.580;-1.666;2023-07-29T06:17:12;4.68;;;2.05;;
33987;SDS011;37428;53.580;-1.666;2023-07-29T06:20:12;7.10;;;2.25;;
33987;SDS011;37428;53.580;-1.666;2023-07-29T06:23:15;7.80;;;1.95;;
33987;SDS011;37428;53.580;-1.666;2023-07-29T06:26:17;4.10;;;1.92;;
33987;SDS011;37428;53.580;-1.666;2023-07-29T06:29:29;8.48;;;2.30;;
33987;SDS011;37428;53.580;-1.666;2023-07-29T06:33:02;8.23;;;2.15;;
33987;SDS011;37428;53.580;-1.666;2023-07-29T06:37:32;8.52;;;2.15;;
33987;SDS011;37428;53.580;-1.666;2023-07-29T06:39:43;6.97;;;2.40;;
33987;SDS011;37428;53.580;-1.666;2023-07-29T06:42:47;8.18;;;2.15;;
33987;SDS011;37428;53.580;-1.666;2023-07-29T06:45:51;4.55;;;1.70;;
33987;SDS011;37428;53.580;-1.666;2023-07-29T06:48:53;7.97;;;1.92;;
33987;SDS011;37428;53.580;-1.666;2023-07-29T06:51:55;6.32;;;2.10;;
33987;SDS011;37428;53.580;-1.666;2023-07-29T06:55:06;4.28;;;1.80;;
33987;SDS011;37428;53.580;-1.666;2023-07-29T06:58:25;3.53;;;1.35;;
33987;SDS011;37428;53.580;-1.666;2023-07-29T07:01:31;6.65;;;1.75;;
33987;SDS011;37428;53.580;-1.666;2023-07-29T07:04:33;6.18;;;1.60;;
33987;SDS011;37428;53.580;-1.666;2023-07-29T07:07:41;5.13;;;1.67;;
33987;SDS011;37428;53.580;-1.666;2023-07-29T07:10:43;4.85;;;1.75;;
33987;SDS011;37428;53.580;-1.666;2023-07-29T07:13:45;6.47;;;2.67;;
33987;SDS011;37428;53.580;-1.666;2023-07-29T07:16:56;4.70;;;1.65;;
33987;SDS011;37428;53.580;-1.666;2023-07-29T07:20:27;6.80;;;1.63;;
33987;SDS011;37428;53.580;-1.666;2023-07-29T07:23:40;4.00;;;1.48;;
33987;SDS011;37428;53.580;-1.666;2023-07-29T07:26:56;7.70;;;1.70;;
33987;SDS011;37428;53.580;-1.666;2023-07-29T07:29:59;3.75;;;1.40;;
33987;SDS011;37428;53.580;-1.666;2023-07-29T07:33:17;5.22;;;1.33;;
33987;SDS011;37428;53.580;-1.666;2023-07-29T07:36:33;6.63;;;1.45;;
33987;SDS011;37428;53.580;-1.666;2023-07-29T07:39:36;6.90;;;0.95;;
33987;SDS011;37428;53.580;-1.666;2023-07-29T07:42:38;3.13;;;1.13;;
33987;SDS011;37428;53.580;-1.666;2023-07-29T07:45:41;7.43;;;1.50;;
33987;SDS011;37428;53.580;-1.666;2023-07-29T07:48:45;3.08;;;1.02;;
33987;SDS011;37428;53.580;-1.666;2023-07-29T07:51:48;5.32;;;0.98;;
33987;SDS011;37428;53.580;-1.666;2023-07-29T07:54:52;4.60;;;0.95;;
33987;SDS011;37428;53.580;-1.666;2023-07-29T07:57:54;2.20;;;0.65;;
33987;SDS011;37428;53.580;-1.666;2023-07-29T08:01:00;3.65;;;0.80;;
33987;SDS011;37428;53.580;-1.666;2023-07-29T08:04:05;2.80;;;1.20;;
33987;SDS011;37428;53.580;-1.666;2023-07-29T08:07:09;2.70;;;1.00;;
33987;SDS011;37428;53.580;-1.666;2023-07-29T08:10:18;2.10;;;0.88;;
33987;SDS011;37428;53.580;-1.666;2023-07-29T08:13:49;2.25;;;1.00;;
33987;SDS011;37428;53.580;-1.666;2023-07-29T08:16:59;2.67;;;1.10;;
33987;SDS011;37428;53.580;-1.666;2023-07-29T08:20:06;2.35;;;0.80;;
33987;SDS011;37428;53.580;-1.666;2023-07-29T08:23:35;4.70;;;0.93;;
33987;SDS011;37428;53.580;-1.666;2023-07-29T08:26:38;1.42;;;0.60;;
33987;SDS011;37428;53.580;-1.666;2023-07-29T08:29:40;2.53;;;0.82;;
33987;SDS011;37428;53.580;-1.666;2023-07-29T08:32:42;4.18;;;0.70;;
33987;SDS011;37428;53.580;-1.666;2023-07-29T08:35:46;3.95;;;0.98;;
33987;SDS011;37428;53.580;-1.666;2023-07-29T08:38:48;2.35;;;0.88;;
33987;SDS011;37428;53.580;-1.666;2023-07-29T08:41:52;3.63;;;1.00;;
33987;SDS011;37428;53.580;-1.666;2023-07-29T08:44:59;4.65;;;1.10;;
33987;SDS011;37428;53.580;-1.666;2023-07-29T08:48:10;3.45;;;1.13;;
33987;SDS011;37428;53.580;-1.666;2023-07-29T08:51:20;4.05;;;1.02;;
33987;SDS011;37428;53.580;-1.666;2023-07-29T08:54:25;6.20;;;1.40;;
33987;SDS011;37428;53.580;-1.666;2023-07-29T08:57:29;3.28;;;1.65;;
33987;SDS011;37428;53.580;-1.666;2023-07-29T09:00:32;7.97;;;1.63;;
33987;SDS011;37428;53.580;-1.666;2023-07-29T09:03:36;6.43;;;2.22;;
33987;SDS011;37428;53.580;-1.666;2023-07-29T09:06:39;4.78;;;1.48;;
33987;SDS011;37428;53.580;-1.666;2023-07-29T09:09:45;5.10;;;1.60;;
33987;SDS011;37428;53.580;-1.666;2023-07-29T09:12:47;5.85;;;1.98;;
33987;SDS011;37428;53.580;-1.666;2023-07-29T09:15:54;6.18;;;1.45;;
33987;SDS011;37428;53.580;-1.666;2023-07-29T09:18:58;6.78;;;1.20;;
33987;SDS011;37428;53.580;-1.666;2023-07-29T09:22:19;3.67;;;1.80;;
33987;SDS011;37428;53.580;-1.666;2023-07-29T09:25:36;3.90;;;1.40;;
33987;SDS011;37428;53.580;-1.666;2023-07-29T09:34:43;5.13;;;1.42;;
33987;SDS011;37428;53.580;-1.666;2023-07-29T09:37:46;6.18;;;1.83;;
33987;SDS011;37428;53.580;-1.666;2023-07-29T09:40:51;8.60;;;2.17;;
33987;SDS011;37428;53.580;-1.666;2023-07-29T09:44:06;5.88;;;1.95;;
33987;SDS011;37428;53.580;-1.666;2023-07-29T09:47:20;5.47;;;1.70;;
33987;SDS011;37428;53.580;-1.666;2023-07-29T09:50:26;2.35;;;1.17;;
33987;SDS011;37428;53.580;-1.666;2023-07-29T09:53:37;4.03;;;1.10;;
33987;SDS011;37428;53.580;-1.666;2023-07-29T09:56:51;4.10;;;1.25;;
33987;SDS011;37428;53.580;-1.666;2023-07-29T09:59:55;4.13;;;1.30;;
33987;SDS011;37428;53.580;-1.666;2023-07-29T10:02:58;7.60;;;2.17;;
33987;SDS011;37428;53.580;-1.666;2023-07-29T10:06:01;7.20;;;1.13;;
33987;SDS011;37428;53.580;-1.666;2023-07-29T10:09:05;5.05;;;1.40;;
33987;SDS011;37428;53.580;-1.666;2023-07-29T10:12:11;6.13;;;1.83;;
33987;SDS011;37428;53.580;-1.666;2023-07-29T10:15:34;5.75;;;2.15;;
33987;SDS011;37428;53.580;-1.666;2023-07-29T10:18:37;4.82;;;1.48;;
33987;SDS011;37428;53.580;-1.666;2023-07-29T10:21:46;6.43;;;1.50;;
33987;SDS011;37428;53.580;-1.666;2023-07-29T10:25:02;5.78;;;1.67;;
33987;SDS011;37428;53.580;-1.666;2023-07-29T10:28:06;5.82;;;1.95;;
33987;SDS011;37428;53.580;-1.666;2023-07-29T10:31:09;7.00;;;1.65;;
33987;SDS011;37428;53.580;-1.666;2023-07-29T10:34:12;6.47;;;2.00;;
33987;SDS011;37428;53.580;-1.666;2023-07-29T10:44:10;4.90;;;1.48;;
33987;SDS011;37428;53.580;-1.666;2023-07-29T10:47:53;7.10;;;1.50;;
33987;SDS011;37428;53.580;-1.666;2023-07-29T10:51:04;7.38;;;2.47;;
33987;SDS011;37428;53.580;-1.666;2023-07-29T10:54:26;5.97;;;1.63;;
33987;SDS011;37428;53.580;-1.666;2023-07-29T10:57:33;5.18;;;1.58;;
33987;SDS011;37428;53.580;-1.666;2023-07-29T11:00:36;5.43;;;1.55;;
33987;SDS011;37428;53.580;-1.666;2023-07-29T11:03:39;7.47;;;1.33;;
33987;SDS011;37428;53.580;-1.666;2023-07-29T11:10:27;7.25;;;1.52;;
33987;SDS011;37428;53.580;-1.666;2023-07-29T11:13:45;10.93;;;1.98;;
33987;SDS011;37428;53.580;-1.666;2023-07-29T11:16:59;4.00;;;1.33;;
33987;SDS011;37428;53.580;-1.666;2023-07-29T11:20:24;3.97;;;1.30;;
33987;SDS011;37428;53.580;-1.666;2023-07-29T11:23:31;5.38;;;1.20;;
33987;SDS011;37428;53.580;-1.666;2023-07-29T11:26:36;6.85;;;1.73;;
33987;SDS011;37428;53.580;-1.666;2023-07-29T11:29:40;8.25;;;1.60;;
33987;SDS011;37428;53.580;-1.666;2023-07-29T11:32:43;8.90;;;2.13;;
33987;SDS011;37428;53.580;-1.666;2023-07-29T11:35:47;6.00;;;2.65;;
33987;SDS011;37428;53.580;-1.666;2023-07-29T11:38:50;6.35;;;1.48;;
33987;SDS011;37428;53.580;-1.666;2023-07-29T11:41:55;4.18;;;1.52;;
33987;SDS011;37428;53.580;-1.666;2023-07-29T11:44:59;4.53;;;1.17;;
33987;SDS011;37428;53.580;-1.666;2023-07-29T11:48:03;3.97;;;1.50;;
33987;SDS011;37428;53.580;-1.666;2023-07-29T11:51:07;10.43;;;1.65;;
33987;SDS011;37428;53.580;-1.666;2023-07-29T11:54:11;5.10;;;1.27;;
33987;SDS011;37428;53.580;-1.666;2023-07-29T11:57:14;6.90;;;1.25;;
33987;SDS011;37428;53.580;-1.666;2023-07-29T12:00:19;5.35;;;1.45;;
33987;SDS011;37428;53.580;-1.666;2023-07-29T12:03:22;4.13;;;1.27;;
33987;SDS011;37428;53.580;-1.666;2023-07-29T12:06:25;3.60;;;1.30;;
33987;SDS011;37428;53.580;-1.666;2023-07-29T12:09:31;4.53;;;1.33;;
33987;SDS011;37428;53.580;-1.666;2023-07-29T12:12:37;5.13;;;1.38;;
33987;SDS011;37428;53.580;-1.666;2023-07-29T12:16:02;5.38;;;1.27;;
33987;SDS011;37428;53.580;-1.666;2023-07-29T12:19:04;3.25;;;1.45;;
33987;SDS011;37428;53.580;-1.666;2023-07-29T12:22:07;6.47;;;1.27;;
33987;SDS011;37428;53.580;-1.666;2023-07-29T12:25:25;4.10;;;1.30;;
33987;SDS011;37428;53.580;-1.666;2023-07-29T12:28:32;4.45;;;1.20;;
33987;SDS011;37428;53.580;-1.666;2023-07-29T12:34:39;5.80;;;1.52;;
33987;SDS011;37428;53.580;-1.666;2023-07-29T12:40:46;6.63;;;1.38;;
33987;SDS011;37428;53.580;-1.666;2023-07-29T12:46:59;5.45;;;1.63;;
33987;SDS011;37428;53.580;-1.666;2023-07-29T12:50:04;5.30;;;1.35;;
33987;SDS011;37428;53.580;-1.666;2023-07-29T12:53:09;6.28;;;1.90;;
33987;SDS011;37428;53.580;-1.666;2023-07-29T12:56:13;3.75;;;1.13;;
33987;SDS011;37428;53.580;-1.666;2023-07-29T12:59:17;4.70;;;1.23;;
33987;SDS011;37428;53.580;-1.666;2023-07-29T13:02:23;6.22;;;1.33;;
33987;SDS011;37428;53.580;-1.666;2023-07-29T13:05:25;2.65;;;1.10;;
33987;SDS011;37428;53.580;-1.666;2023-07-29T13:08:27;5.50;;;1.45;;
33987;SDS011;37428;53.580;-1.666;2023-07-29T13:11:31;7.25;;;1.38;;
33987;SDS011;37428;53.580;-1.666;2023-07-29T13:14:35;5.68;;;2.42;;
33987;SDS011;37428;53.580;-1.666;2023-07-29T13:17:40;7.60;;;1.27;;
33987;SDS011;37428;53.580;-1.666;2023-07-29T13:21:06;9.82;;;1.98;;
33987;SDS011;37428;53.580;-1.666;2023-07-29T13:24:08;5.00;;;1.33;;
33987;SDS011;37428;53.580;-1.666;2023-07-29T13:30:28;2.58;;;0.90;;
33987;SDS011;37428;53.580;-1.666;2023-07-29T13:33:32;5.93;;;1.58;;
33987;SDS011;37428;53.580;-1.666;2023-07-29T13:36:34;4.43;;;1.15;;
33987;SDS011;37428;53.580;-1.666;2023-07-29T13:39:36;5.35;;;1.27;;
33987;SDS011;37428;53.580;-1.666;2023-07-29T13:45:41;3.33;;;0.83;;
33987;SDS011;37428;53.580;-1.666;2023-07-29T13:48:44;3.95;;;1.42;;
33987;SDS011;37428;53.580;-1.666;2023-07-29T13:51:46;5.22;;;1.00;;
33987;SDS011;37428;53.580;-1.666;2023-07-29T13:54:48;6.30;;;1.20;;
33987;SDS011;37428;53.580;-1.666;2023-07-29T13:57:52;3.38;;;1.25;;
33987;SDS011;37428;53.580;-1.666;2023-07-29T14:01:08;1.75;;;0.60;;
33987;SDS011;37428;53.580;-1.666;2023-07-29T14:04:12;2.17;;;0.95;;
33987;SDS011;37428;53.580;-1.666;2023-07-29T14:07:15;3.78;;;1.02;;
33987;SDS011;37428;53.580;-1.666;2023-07-29T14:10:19;4.68;;;1.08;;
33987;SDS011;37428;53.580;-1.666;2023-07-29T14:13:23;7.68;;;1.45;;
33987;SDS011;37428;53.580;-1.666;2023-07-29T14:16:25;2.75;;;0.88;;
33987;SDS011;37428;53.580;-1.666;2023-07-29T14:22:31;1.85;;;0.90;;
33987;SDS011;37428;53.580;-1.666;2023-07-29T14:25:33;4.20;;;1.40;;
33987;SDS011;37428;53.580;-1.666;2023-07-29T14:28:49;2.47;;;0.80;;
33987;SDS011;37428;53.580;-1.666;2023-07-29T14:31:53;2.10;;;0.95;;
33987;SDS011;37428;53.580;-1.666;2023-07-29T14:35:00;5.03;;;1.17;;
33987;SDS011;37428;53.580;-1.666;2023-07-29T14:38:03;1.75;;;0.80;;
33987;SDS011;37428;53.580;-1.666;2023-07-29T14:41:05;2.83;;;1.02;;
33987;SDS011;37428;53.580;-1.666;2023-07-29T14:47:10;2.13;;;0.83;;
33987;SDS011;37428;53.580;-1.666;2023-07-29T14:50:13;2.35;;;0.85;;
33987;SDS011;37428;53.580;-1.666;2023-07-29T14:53:16;3.63;;;0.90;;
33987;SDS011;37428;53.580;-1.666;2023-07-29T14:56:19;4.00;;;1.25;;
33987;SDS011;37428;53.580;-1.666;2023-07-29T14:59:21;2.38;;;0.85;;
33987;SDS011;37428;53.580;-1.666;2023-07-29T15:02:26;4.05;;;0.82;;
33987;SDS011;37428;53.580;-1.666;2023-07-29T15:05:30;3.58;;;0.90;;
33987;SDS011;37428;53.580;-1.666;2023-07-29T15:08:32;3.40;;;0.90;;
33987;SDS011;37428;53.580;-1.666;2023-07-29T15:14:38;3.13;;;1.37;;
33987;SDS011;37428;53.580;-1.666;2023-07-29T15:18:01;2.45;;;0.73;;
33987;SDS011;37428;53.580;-1.666;2023-07-29T15:24:07;5.13;;;1.65;;
33987;SDS011;37428;53.580;-1.666;2023-07-29T15:27:09;6.70;;;0.80;;
33987;SDS011;37428;53.580;-1.666;2023-07-29T15:30:11;1.42;;;0.80;;
33987;SDS011;37428;53.580;-1.666;2023-07-29T15:33:15;3.55;;;0.90;;
33987;SDS011;37428;53.580;-1.666;2023-07-29T15:36:35;4.03;;;0.68;;
33987;SDS011;37428;53.580;-1.666;2023-07-29T15:39:38;3.53;;;1.02;;
33987;SDS011;37428;53.580;-1.666;2023-07-29T15:42:42;3.03;;;0.60;;
33987;SDS011;37428;53.580;-1.666;2023-07-29T15:45:44;4.88;;;0.90;;
33987;SDS011;37428;53.580;-1.666;2023-07-29T15:48:46;6.47;;;1.15;;
33987;SDS011;37428;53.580;-1.666;2023-07-29T15:51:52;3.53;;;0.75;;
33987;SDS011;37428;53.580;-1.666;2023-07-29T15:55:02;4.78;;;0.82;;
33987;SDS011;37428;53.580;-1.666;2023-07-29T15:58:05;2.55;;;1.00;;
33987;SDS011;37428;53.580;-1.666;2023-07-29T16:01:09;1.20;;;0.70;;
33987;SDS011;37428;53.580;-1.666;2023-07-29T16:04:11;3.58;;;0.90;;
33987;SDS011;37428;53.580;-1.666;2023-07-29T16:07:17;5.90;;;1.50;;
33987;SDS011;37428;53.580;-1.666;2023-07-29T16:10:19;5.38;;;1.00;;
33987;SDS011;37428;53.580;-1.666;2023-07-29T16:13:23;6.82;;;1.00;;
33987;SDS011;37428;53.580;-1.666;2023-07-29T16:16:27;3.15;;;0.88;;
33987;SDS011;37428;53.580;-1.666;2023-07-29T16:19:31;4.90;;;1.13;;
33987;SDS011;37428;53.580;-1.666;2023-07-29T16:22:35;2.28;;;0.80;;
33987;SDS011;37428;53.580;-1.666;2023-07-29T16:25:38;5.75;;;0.85;;
33987;SDS011;37428;53.580;-1.666;2023-07-29T16:28:41;5.35;;;1.10;;
33987;SDS011;37428;53.580;-1.666;2023-07-29T16:31:43;5.85;;;0.95;;
33987;SDS011;37428;53.580;-1.666;2023-07-29T16:34:46;4.93;;;1.45;;
33987;SDS011;37428;53.580;-1.666;2023-07-29T16:37:49;3.80;;;1.13;;
33987;SDS011;37428;53.580;-1.666;2023-07-29T16:40:51;3.80;;;1.02;;
33987;SDS011;37428;53.580;-1.666;2023-07-29T16:43:54;5.28;;;0.93;;
33987;SDS011;37428;53.580;-1.666;2023-07-29T16:47:02;3.90;;;0.80;;
33987;SDS011;37428;53.580;-1.666;2023-07-29T16:50:05;3.50;;;1.13;;
33987;SDS011;37428;53.580;-1.666;2023-07-29T16:53:11;3.28;;;1.00;;
33987;SDS011;37428;53.580;-1.666;2023-07-29T16:56:15;6.40;;;0.90;;
33987;SDS011;37428;53.580;-1.666;2023-07-29T16:59:19;4.75;;;0.90;;
33987;SDS011;37428;53.580;-1.666;2023-07-29T17:02:29;2.80;;;0.80;;
33987;SDS011;37428;53.580;-1.666;2023-07-29T17:05:33;3.03;;;0.77;;
33987;SDS011;37428;53.580;-1.666;2023-07-29T17:08:39;4.55;;;0.90;;
33987;SDS011;37428;53.580;-1.666;2023-07-29T17:11:41;3.97;;;1.02;;
33987;SDS011;37428;53.580;-1.666;2023-07-29T17:14:59;4.43;;;1.40;;
33987;SDS011;37428;53.580;-1.666;2023-07-29T17:18:02;3.22;;;1.00;;
33987;SDS011;37428;53.580;-1.666;2023-07-29T17:21:04;3.35;;;0.73;;
33987;SDS011;37428;53.580;-1.666;2023-07-29T17:24:07;3.92;;;1.58;;
33987;SDS011;37428;53.580;-1.666;2023-07-29T17:27:10;3.30;;;1.25;;
33987;SDS011;37428;53.580;-1.666;2023-07-29T17:30:12;4.97;;;1.00;;
33987;SDS011;37428;53.580;-1.666;2023-07-29T17:33:20;3.22;;;0.75;;
33987;SDS011;37428;53.580;-1.666;2023-07-29T17:36:22;3.40;;;1.20;;
33987;SDS011;37428;53.580;-1.666;2023-07-29T17:39:27;4.90;;;0.80;;
33987;SDS011;37428;53.580;-1.666;2023-07-29T17:42:29;4.60;;;0.98;;
33987;SDS011;37428;53.580;-1.666;2023-07-29T17:45:32;3.90;;;0.82;;
33987;SDS011;37428;53.580;-1.666;2023-07-29T17:48:34;2.75;;;0.70;;
33987;SDS011;37428;53.580;-1.666;2023-07-29T17:51:36;2.60;;;0.90;;
33987;SDS011;37428;53.580;-1.666;2023-07-29T17:54:39;6.05;;;1.00;;
33987;SDS011;37428;53.580;-1.666;2023-07-29T17:57:41;4.25;;;1.52;;
33987;SDS011;37428;53.580;-1.666;2023-07-29T18:00:59;4.70;;;0.90;;
33987;SDS011;37428;53.580;-1.666;2023-07-29T18:04:01;4.75;;;1.35;;
33987;SDS011;37428;53.580;-1.666;2023-07-29T18:07:03;4.78;;;1.08;;
33987;SDS011;37428;53.580;-1.666;2023-07-29T18:10:08;3.28;;;0.90;;
33987;SDS011;37428;53.580;-1.666;2023-07-29T18:13:10;5.78;;;1.70;;
33987;SDS011;37428;53.580;-1.666;2023-07-29T18:16:12;4.72;;;1.77;;
33987;SDS011;37428;53.580;-1.666;2023-07-29T18:19:19;6.25;;;1.60;;
33987;SDS011;37428;53.580;-1.666;2023-07-29T18:22:24;4.63;;;1.60;;
33987;SDS011;37428;53.580;-1.666;2023-07-29T18:25:30;6.22;;;1.70;;
33987;SDS011;37428;53.580;-1.666;2023-07-29T18:28:41;5.50;;;2.25;;
33987;SDS011;37428;53.580;-1.666;2023-07-29T18:31:44;5.05;;;1.33;;
33987;SDS011;37428;53.580;-1.666;2023-07-29T18:34:52;7.13;;;2.03;;
33987;SDS011;37428;53.580;-1.666;2023-07-29T18:37:58;4.43;;;0.95;;
33987;SDS011;37428;53.580;-1.666;2023-07-29T18:41:03;7.80;;;1.35;;
33987;SDS011;37428;53.580;-1.666;2023-07-29T18:44:16;3.88;;;1.40;;
33987;SDS011;37428;53.580;-1.666;2023-07-29T18:47:33;8.07;;;1.85;;
33987;SDS011;37428;53.580;-1.666;2023-07-29T18:50:36;8.10;;;1.58;;
33987;SDS011;37428;53.580;-1.666;2023-07-29T18:53:38;6.03;;;1.52;;
33987;SDS011;37428;53.580;-1.666;2023-07-29T18:56:41;6.78;;;1.73;;
33987;SDS011;37428;53.580;-1.666;2023-07-29T18:59:45;6.97;;;1.58;;
33987;SDS011;37428;53.580;-1.666;2023-07-29T19:02:47;10.40;;;1.73;;
33987;SDS011;37428;53.580;-1.666;2023-07-29T19:05:53;7.25;;;1.88;;
33987;SDS011;37428;53.580;-1.666;2023-07-29T19:08:56;5.97;;;1.58;;
33987;SDS011;37428;53.580;-1.666;2023-07-29T19:12:02;11.07;;;2.30;;
33987;SDS011;37428;53.580;-1.666;2023-07-29T19:15:05;4.97;;;1.48;;
33987;SDS011;37428;53.580;-1.666;2023-07-29T19:18:10;6.55;;;1.30;;
33987;SDS011;37428;53.580;-1.666;2023-07-29T19:21:12;5.95;;;2.25;;
33987;SDS011;37428;53.580;-1.666;2023-07-29T19:24:16;5.25;;;1.60;;
33987;SDS011;37428;53.580;-1.666;2023-07-29T19:27:20;6.50;;;1.38;;
33987;SDS011;37428;53.580;-1.666;2023-07-29T19:30:22;4.80;;;1.20;;
33987;SDS011;37428;53.580;-1.666;2023-07-29T19:33:24;5.65;;;1.60;;
33987;SDS011;37428;53.580;-1.666;2023-07-29T19:36:28;4.60;;;1.42;;
33987;SDS011;37428;53.580;-1.666;2023-07-29T19:39:32;7.13;;;2.60;;